Airfield :
LOGIN :

Register | Disclaimer

   EN    FR    IT 

 










Legend :    VFR   Marginal VFR   IFR   Intensive IFR   Very Intensive IFR
Visi :
Ceiling :
>= 8 km
>= 3000ft
5 to 8 km
1000 to 3000 ft
1500m to 5 km
500 to 1000 ft
800 to 1500m
200 to 500 ft
< 800m
< 200 ft
Symbols :   Thunderstorms  Fog  Heavy snow  Heavy precipitations  Wind > 20 kt
SIGMETs :     Misc.  Thunderstorms  Icing  Turbulence  Mountain Waves  Volcanic Ashes






- Airport Elevation : 33 ft
- IATA code : MHZ


EGUN - RAF Mildenhall

CURRENT METAR :
  • 261056Z AUTO 16004KT 9999 SCT036 SCT100 03/03 A3000 RMK AO2 SLP163 T00310031 FZRANO $

EXPIRED METARs :
  • 261051Z AUTO 18004KT 9999 SCT036 SCT100 03/03 A3001 RMK AO2 SLP166 FZRANO $
  • 261031Z AUTO 18004KT 9999 SCT039 02/02 A3001 RMK AO2 SLP166 FZRANO $
  • 260956Z AUTO 19003KT 9999 CLR 02/02 A3002 RMK AO2 SLP169 T00150015 FZRANO ?
  • 260856Z AUTO 00000KT 9999 CLR 00/00 A3002 RMK AO2 SLP169 T00010001 50006 FZRANO

TAF TAF EGUN
Valid from the 26 at 04:00 until the 27 at 10:00 UTC


260400Z 2604/2710 25009KT 9999 SKC QNH3000INS
BECMG 2608/2609 22009KT 9999 SCT120 QNH2995INS
BECMG 2613/2614 19010G20KT 8000 -SHRA BKN010 610209 QNH2976INS
BECMG 2701/2702 27010G15KT 9999 NSW BKN007 QNH2976INS TX06/2702Z TNM02/2605Z



MET'MAP, your aeronautical weather chart ! - Copyright ORBIFLY December 2007 - Disclaimer

ORBIFLY MET'MAP TEAM :

Programming & Development : Alexandra Zaïnal
Concept & original design : Baudouin d'Aumeries
Assistance for programming : Marc-Olivier Méhu
Technical & hardware support : Manuel Goepfert

Contact : metmap@orbifly.com




SOURCES & CREDITS :

   NOAA